createdAt,value
2017-12-12T00:00:01.698Z,7.43
2017-12-12T00:02:42.564Z,6.10
2017-12-12T00:05:09.242Z,5.37
2017-12-12T00:07:35.974Z,3.07
2017-12-12T00:10:02.680Z,6.53
2017-12-12T00:12:34.978Z,7.30
2017-12-12T00:15:01.683Z,5.20
2017-12-12T00:17:41.032Z,6.20
2017-12-12T00:20:12.458Z,9.07
2017-12-12T00:22:42.176Z,8.70
2017-12-12T00:25:08.884Z,4.27
2017-12-12T00:27:38.816Z,5.37
2017-12-12T00:30:20.867Z,4.67
2017-12-12T00:32:51.148Z,5.43
2017-12-12T00:35:17.896Z,5.03
2017-12-12T00:37:44.659Z,3.77
2017-12-12T00:40:11.352Z,6.40
2017-12-12T00:42:38.044Z,3.37
2017-12-12T00:45:04.777Z,5.50
2017-12-12T00:47:31.493Z,3.20
2017-12-12T00:50:08.508Z,5.63
2017-12-12T00:52:35.222Z,5.60
2017-12-12T00:55:01.908Z,3.87
2017-12-12T00:57:30.572Z,8.63
2017-12-12T00:59:57.299Z,5.53
2017-12-12T01:02:25.978Z,4.60
2017-12-12T01:04:52.690Z,2.43
2017-12-12T01:07:19.378Z,2.90
2017-12-12T01:09:49.902Z,6.00
2017-12-12T01:12:20.500Z,4.67
2017-12-12T01:14:47.216Z,6.60
2017-12-12T01:17:22.338Z,4.93
2017-12-12T01:19:52.850Z,2.03
2017-12-12T01:22:27.615Z,6.73
2017-12-12T01:25:02.136Z,6.70
2017-12-12T01:27:43.374Z,3.00
2017-12-12T01:30:17.374Z,4.17
2017-12-12T01:32:44.102Z,4.40
2017-12-12T01:35:23.180Z,3.70
2017-12-12T01:37:49.962Z,5.43
2017-12-12T01:40:22.319Z,4.53
2017-12-12T01:43:06.551Z,3.00
2017-12-12T01:48:19.048Z,2.90
2017-12-12T01:50:58.514Z,3.17
2017-12-12T01:53:27.264Z,8.90
2017-12-12T01:55:53.992Z,2.73
2017-12-12T01:58:28.257Z,4.13
2017-12-12T02:00:58.955Z,2.80
2017-12-12T02:03:32.702Z,6.73
2017-12-12T02:05:59.402Z,4.70
2017-12-12T02:08:26.096Z,3.57
2017-12-12T02:10:53.850Z,7.33
2017-12-12T02:13:20.563Z,4.10
2017-12-12T02:15:47.341Z,3.10
2017-12-12T02:18:14.093Z,3.13
2017-12-12T02:20:42.732Z,2.90
2017-12-12T02:23:10.426Z,5.47
2017-12-12T02:25:37.184Z,3.83
2017-12-12T02:28:07.472Z,3.73
2017-12-12T02:30:35.128Z,3.87
2017-12-12T02:33:03.836Z,4.47
2017-12-12T02:35:30.578Z,3.30
2017-12-12T02:37:57.308Z,4.97
2017-12-12T02:40:26.023Z,5.20
2017-12-12T02:43:04.515Z,3.30
2017-12-12T02:45:31.305Z,3.70
2017-12-12T02:47:58.006Z,4.87
2017-12-12T02:50:24.706Z,4.13
2017-12-12T02:52:51.454Z,5.70
2017-12-12T02:55:22.684Z,5.70
2017-12-12T02:57:49.416Z,6.17
2017-12-12T03:00:21.574Z,3.27
2017-12-12T03:02:54.188Z,4.90
2017-12-12T03:05:22.862Z,3.47
2017-12-12T03:07:49.632Z,4.33
2017-12-12T03:10:27.112Z,5.63
2017-12-12T03:12:53.828Z,5.33
2017-12-12T03:15:22.516Z,4.33
2017-12-12T03:17:49.221Z,4.40
2017-12-12T03:20:15.900Z,2.17
2017-12-12T03:22:55.210Z,2.10
2017-12-12T03:25:33.322Z,4.03
2017-12-12T03:30:45.500Z,3.30
2017-12-12T03:33:12.208Z,4.70
2017-12-12T03:35:39.034Z,5.57
2017-12-12T03:38:06.724Z,4.70
2017-12-12T03:40:33.402Z,5.93
2017-12-12T03:43:00.178Z,4.90
2017-12-12T03:45:26.870Z,5.67
2017-12-12T03:48:03.996Z,6.40
2017-12-12T03:50:36.716Z,4.07
2017-12-12T03:53:04.420Z,6.67
2017-12-12T03:55:31.142Z,6.20
2017-12-12T03:58:01.365Z,6.13
2017-12-12T04:00:28.060Z,5.57
2017-12-12T04:05:47.084Z,9.10
2017-12-12T04:08:15.799Z,4.83
2017-12-12T04:10:56.213Z,8.07
2017-12-12T04:13:36.697Z,5.20
2017-12-12T04:16:16.037Z,6.30
2017-12-12T04:18:44.756Z,6.53
2017-12-12T04:21:24.479Z,5.90
2017-12-12T04:23:54.943Z,7.40
2017-12-12T04:26:21.674Z,5.70
2017-12-12T04:28:48.392Z,9.47
2017-12-12T04:31:21.302Z,8.37
2017-12-12T04:33:53.832Z,11.57
2017-12-12T04:36:27.388Z,10.90
2017-12-12T04:38:54.171Z,13.67
2017-12-12T04:41:20.897Z,7.77
2017-12-12T04:44:00.096Z,10.87
2017-12-12T04:46:33.122Z,9.47
2017-12-12T04:49:00.982Z,12.70
2017-12-12T04:51:27.659Z,7.37
2017-12-12T04:53:54.375Z,12.13
2017-12-12T04:56:24.230Z,12.50
2017-12-12T05:01:36.442Z,12.83
2017-12-12T05:04:03.151Z,11.13
2017-12-12T05:06:29.827Z,10.97
2017-12-12T05:08:56.597Z,11.97
2017-12-12T05:11:27.003Z,13.57
2017-12-12T05:13:53.735Z,10.37
2017-12-12T05:16:20.506Z,10.10
2017-12-12T05:18:47.207Z,14.13
2017-12-12T05:21:14.901Z,10.77
2017-12-12T05:23:41.664Z,10.80
2017-12-12T05:26:08.379Z,15.67
2017-12-12T05:28:35.107Z,11.30
2017-12-12T05:31:12.518Z,16.77
2017-12-12T05:33:42.464Z,18.00
2017-12-12T05:36:09.177Z,16.23
2017-12-12T05:38:42.787Z,12.10
2017-12-12T05:41:19.320Z,13.50
2017-12-12T05:43:51.933Z,8.93
2017-12-12T05:46:20.634Z,11.63
2017-12-12T05:48:47.387Z,12.87
2017-12-12T05:51:14.139Z,15.83
2017-12-12T05:53:40.846Z,9.03
2017-12-12T05:56:07.543Z,12.60
2017-12-12T05:58:34.295Z,10.03
2017-12-12T06:01:04.491Z,12.00
2017-12-12T06:03:31.247Z,15.40
2017-12-12T06:05:58.049Z,12.70
2017-12-12T06:08:31.046Z,12.47
2017-12-12T06:11:10.767Z,14.47
2017-12-12T06:13:39.492Z,14.50
2017-12-12T06:18:54.805Z,17.10
2017-12-12T06:21:21.562Z,14.23
2017-12-12T06:23:48.276Z,13.97
2017-12-12T06:26:20.991Z,11.93
2017-12-12T06:28:47.751Z,10.97
2017-12-12T06:31:21.536Z,12.57
2017-12-12T06:33:58.091Z,17.67
2017-12-12T06:36:24.808Z,16.33
2017-12-12T06:38:56.411Z,16.40
2017-12-12T06:41:23.147Z,16.10
2017-12-12T06:43:50.823Z,15.40
2017-12-12T06:46:17.555Z,14.27
2017-12-12T06:48:46.234Z,14.20
2017-12-12T06:51:13.951Z,14.37
2017-12-12T06:53:42.583Z,16.03
2017-12-12T06:56:09.281Z,10.20
2017-12-12T06:58:39.718Z,11.50
2017-12-12T07:01:06.416Z,9.03
2017-12-12T07:03:34.093Z,8.33
2017-12-12T07:06:01.783Z,9.20
2017-12-12T07:08:28.473Z,8.43
2017-12-12T07:11:03.047Z,9.93
2017-12-12T07:13:29.857Z,10.03
2017-12-12T07:15:58.555Z,9.43
2017-12-12T07:18:25.366Z,10.83
2017-12-12T07:21:09.435Z,11.50
2017-12-12T07:23:43.484Z,20.20
2017-12-12T07:26:10.250Z,17.10
2017-12-12T07:28:48.091Z,16.20
2017-12-12T07:31:18.541Z,18.33
2017-12-12T07:33:51.955Z,14.13
2017-12-12T07:36:20.639Z,10.70
2017-12-12T07:38:54.795Z,8.40
2017-12-12T07:41:28.462Z,5.37
2017-12-12T07:43:57.271Z,8.27
2017-12-12T07:46:23.997Z,4.37
2017-12-12T07:48:57.912Z,8.73
2017-12-12T07:51:25.577Z,5.30
2017-12-12T07:53:53.251Z,5.87
2017-12-12T07:56:19.963Z,8.60
2017-12-12T07:58:50.421Z,12.93
2017-12-12T08:01:18.144Z,8.83
2017-12-12T08:03:57.401Z,9.17
2017-12-12T08:06:24.222Z,9.50
2017-12-12T08:09:00.857Z,8.97
2017-12-12T08:11:27.587Z,13.70
2017-12-12T08:14:04.293Z,9.27
2017-12-12T08:16:31.001Z,12.13
2017-12-12T08:18:57.693Z,10.53
2017-12-12T08:21:28.233Z,8.63
2017-12-12T08:23:54.934Z,9.27
2017-12-12T08:26:21.629Z,12.30
2017-12-12T08:28:48.327Z,12.80
2017-12-12T08:31:21.910Z,9.10
2017-12-12T08:33:48.635Z,9.73
2017-12-12T08:36:28.109Z,9.47
2017-12-12T08:39:04.245Z,9.73
2017-12-12T08:41:32.313Z,13.13
2017-12-12T08:44:02.871Z,14.90
2017-12-12T08:46:29.609Z,12.13
2017-12-12T08:49:00.173Z,10.93
2017-12-12T08:51:37.575Z,10.37
2017-12-12T08:54:09.431Z,10.20
2017-12-12T08:56:36.124Z,19.17
2017-12-12T08:59:02.825Z,12.77
2017-12-12T09:01:29.551Z,8.07
2017-12-12T09:04:07.561Z,8.60
2017-12-12T09:06:46.874Z,9.23
2017-12-12T09:12:00.643Z,12.23
2017-12-12T09:14:33.574Z,6.73
2017-12-12T09:17:00.263Z,10.30
2017-12-12T09:19:35.251Z,9.37
2017-12-12T09:22:01.953Z,10.63
2017-12-12T09:24:33.337Z,7.47
2017-12-12T09:27:03.507Z,7.33
2017-12-12T09:29:30.180Z,9.90
2017-12-12T09:32:07.067Z,8.10
2017-12-12T09:34:33.757Z,7.10
2017-12-12T09:37:05.918Z,8.13
2017-12-12T09:39:32.655Z,11.13
2017-12-12T09:42:09.230Z,8.47
2017-12-12T09:44:35.984Z,12.10
2017-12-12T09:47:02.713Z,14.43
2017-12-12T09:49:29.401Z,12.37
2017-12-12T09:52:10.488Z,9.87
2017-12-12T09:54:37.691Z,11.23
2017-12-12T09:57:21.709Z,10.90
2017-12-12T10:00:05.570Z,12.10
2017-12-12T10:02:35.845Z,13.00
2017-12-12T10:05:02.549Z,14.47
2017-12-12T10:07:35.855Z,20.20
2017-12-12T10:10:02.539Z,14.67
2017-12-12T10:12:29.244Z,15.90
2017-12-12T10:15:05.937Z,14.77
2017-12-12T10:17:35.851Z,13.90
2017-12-12T10:20:03.393Z,16.53
2017-12-12T10:25:16.180Z,12.47
2017-12-12T10:27:57.591Z,8.60
2017-12-12T10:30:32.565Z,6.67
2017-12-12T10:32:59.276Z,9.83
2017-12-12T10:35:25.967Z,10.90
2017-12-12T10:37:52.715Z,9.70
2017-12-12T10:40:19.468Z,10.80
2017-12-12T10:42:46.155Z,11.93
2017-12-12T10:45:16.365Z,11.73
2017-12-12T10:47:46.173Z,10.93
2017-12-12T10:50:16.031Z,9.63
2017-12-12T10:52:42.749Z,16.43
2017-12-12T10:55:19.687Z,15.03
2017-12-12T10:57:46.409Z,15.73
2017-12-12T11:00:16.704Z,12.20
2017-12-12T11:02:43.436Z,11.77
2017-12-12T11:05:20.049Z,10.97
2017-12-12T11:07:46.775Z,10.80
2017-12-12T11:10:13.451Z,12.33
2017-12-12T11:12:40.191Z,13.37
2017-12-12T11:15:10.540Z,14.47
2017-12-12T11:17:38.217Z,11.13
2017-12-12T11:20:04.895Z,9.90
2017-12-12T11:22:44.224Z,10.63
2017-12-12T11:25:14.723Z,7.70
2017-12-12T11:27:41.464Z,8.03
2017-12-12T11:30:08.197Z,9.67
2017-12-12T11:32:38.013Z,8.10
2017-12-12T11:35:04.713Z,7.33
2017-12-12T11:37:42.188Z,7.57
2017-12-12T11:42:55.366Z,6.07
2017-12-12T11:45:22.054Z,5.47
2017-12-12T11:47:48.773Z,8.60
2017-12-12T11:50:15.525Z,6.43
2017-12-12T11:55:27.808Z,9.03
2017-12-12T11:57:58.452Z,14.13
2017-12-12T12:00:25.263Z,8.67
2017-12-12T12:03:06.288Z,9.27
2017-12-12T12:05:36.585Z,11.53
2017-12-12T12:08:03.305Z,11.80
2017-12-12T12:10:30.082Z,11.50
2017-12-12T12:13:00.411Z,9.97
2017-12-12T12:15:27.098Z,12.23
2017-12-12T12:17:53.814Z,11.87
2017-12-12T12:20:20.513Z,10.50
2017-12-12T12:22:47.217Z,8.13
2017-12-12T12:25:20.346Z,10.70
2017-12-12T12:27:47.075Z,41.80
2017-12-12T12:30:15.836Z,7.23
2017-12-12T12:32:42.567Z,8.93
2017-12-12T12:35:15.604Z,17.77
2017-12-12T12:37:56.856Z,9.50
2017-12-12T12:40:23.529Z,8.47
2017-12-12T12:45:35.867Z,9.93
2017-12-12T12:48:02.606Z,12.77
2017-12-12T12:50:36.838Z,10.47
2017-12-12T12:53:03.538Z,9.33
2017-12-12T12:55:30.223Z,7.43
2017-12-12T12:57:56.969Z,9.37
2017-12-12T13:00:23.754Z,8.97
2017-12-12T13:02:50.435Z,8.70
2017-12-12T13:05:17.140Z,9.87
2017-12-12T13:07:56.922Z,10.60
2017-12-12T13:10:24.504Z,11.63
2017-12-12T13:12:51.193Z,7.50
2017-12-12T13:15:31.778Z,7.83
2017-12-12T13:17:59.368Z,11.20
2017-12-12T13:20:29.386Z,6.40
2017-12-12T13:22:56.110Z,11.60
2017-12-12T13:25:22.782Z,9.03
2017-12-12T13:27:49.460Z,7.13
2017-12-12T13:30:16.194Z,8.33
2017-12-12T13:32:42.867Z,8.80
2017-12-12T13:35:22.531Z,12.57
2017-12-12T13:37:55.786Z,8.97
2017-12-12T13:40:22.539Z,7.20
2017-12-12T13:42:49.219Z,5.53
2017-12-12T13:45:15.972Z,6.77
2017-12-12T13:47:42.670Z,5.00
2017-12-12T13:50:09.336Z,6.37
2017-12-12T13:52:36.029Z,8.70
2017-12-12T13:55:02.730Z,6.53
2017-12-12T13:57:29.402Z,6.70
2017-12-12T13:59:56.084Z,6.77
2017-12-12T14:02:23.105Z,6.37
2017-12-12T14:04:49.778Z,7.47
2017-12-12T14:07:16.480Z,8.83
2017-12-12T14:09:43.211Z,10.40
2017-12-12T14:12:09.920Z,10.80
2017-12-12T14:14:36.624Z,9.80
2017-12-12T14:17:03.336Z,10.67
2017-12-12T14:19:31.060Z,14.20
2017-12-12T14:21:57.748Z,8.83
2017-12-12T14:24:24.480Z,10.77
2017-12-12T14:26:51.164Z,9.93
2017-12-12T14:29:17.856Z,14.10
2017-12-12T14:31:44.560Z,14.93
2017-12-12T14:34:11.248Z,15.00
2017-12-12T14:36:37.944Z,18.60
2017-12-12T14:39:04.682Z,19.33
2017-12-12T14:41:31.364Z,18.47
2017-12-12T14:43:58.058Z,16.10
2017-12-12T14:46:24.794Z,15.67
2017-12-12T14:48:51.480Z,16.00
2017-12-12T14:51:18.163Z,20.37
2017-12-12T14:53:44.883Z,17.07
2017-12-12T14:56:11.599Z,15.23
2017-12-12T14:58:38.302Z,18.13
2017-12-12T15:01:05.014Z,19.47
2017-12-12T15:03:31.698Z,19.33
2017-12-12T15:05:58.392Z,20.50
2017-12-12T15:08:25.126Z,21.07
2017-12-12T15:10:52.622Z,19.23
2017-12-12T15:13:34.629Z,24.37
2017-12-12T15:16:04.805Z,25.13
2017-12-12T15:18:31.527Z,31.83
2017-12-12T15:20:59.251Z,23.60
2017-12-12T15:23:25.943Z,23.63
2017-12-12T15:25:58.824Z,21.27
2017-12-12T15:28:25.550Z,27.20
2017-12-12T15:31:02.238Z,21.77
2017-12-12T15:33:32.169Z,20.77
2017-12-12T15:35:58.918Z,22.33
2017-12-12T15:38:25.660Z,18.87
2017-12-12T15:41:05.094Z,22.60
2017-12-12T15:43:31.779Z,22.50
2017-12-12T15:45:58.493Z,20.77
2017-12-12T15:48:25.350Z,26.43
2017-12-12T15:51:08.516Z,24.33
2017-12-12T15:53:42.502Z,27.07
2017-12-12T15:56:09.896Z,33.87
2017-12-12T15:58:37.618Z,24.63
2017-12-12T16:01:04.381Z,29.87
2017-12-12T16:03:44.686Z,31.70
2017-12-12T16:06:28.227Z,29.60
2017-12-12T16:08:58.530Z,29.97
2017-12-12T16:11:25.232Z,27.43
2017-12-12T16:13:51.912Z,24.60
2017-12-12T16:19:16.960Z,27.33
2017-12-12T16:21:51.014Z,23.23
2017-12-12T16:24:24.700Z,26.30
2017-12-12T16:27:05.877Z,22.37
2017-12-12T16:29:36.212Z,18.87
2017-12-12T16:32:15.324Z,20.93
2017-12-12T16:34:50.426Z,11.50
2017-12-12T16:37:17.168Z,8.57
2017-12-12T16:39:43.893Z,20.73
2017-12-12T16:42:10.568Z,20.57
2017-12-12T16:44:37.318Z,28.53
2017-12-12T16:47:12.604Z,15.80
2017-12-12T16:49:42.666Z,19.57
2017-12-12T16:52:09.392Z,17.33
2017-12-12T16:54:36.081Z,17.80
2017-12-12T16:57:02.782Z,19.00
2017-12-12T16:59:29.464Z,14.93
2017-12-12T17:01:56.146Z,14.77
2017-12-12T17:04:39.790Z,16.93
2017-12-12T17:07:17.180Z,21.10
2017-12-12T17:09:58.339Z,32.33
2017-12-12T17:12:27.091Z,16.00
2017-12-12T17:14:53.813Z,19.30
2017-12-12T17:17:20.594Z,33.73
2017-12-12T17:19:47.265Z,30.83
2017-12-12T17:22:13.942Z,13.27
2017-12-12T17:24:40.665Z,12.13
2017-12-12T17:27:07.370Z,16.97
2017-12-12T17:29:34.066Z,14.67
2017-12-12T17:32:00.822Z,14.93
2017-12-12T17:34:27.514Z,14.63
2017-12-12T17:37:04.884Z,24.00
2017-12-12T17:39:35.082Z,20.70
2017-12-12T17:42:01.765Z,22.60
2017-12-12T17:44:29.505Z,19.83
2017-12-12T17:46:56.198Z,17.93
2017-12-12T17:49:22.876Z,14.53
2017-12-12T17:51:49.590Z,20.70
2017-12-12T17:54:16.272Z,23.73
2017-12-12T17:56:42.972Z,14.47
2017-12-12T17:59:09.692Z,13.33
2017-12-12T18:01:36.406Z,15.17
2017-12-12T18:04:03.080Z,13.23
2017-12-12T18:06:29.822Z,15.37
2017-12-12T18:08:56.514Z,15.47
2017-12-12T18:14:08.786Z,13.53
2017-12-12T18:16:35.495Z,16.80
2017-12-12T18:19:02.292Z,16.87
2017-12-12T18:21:29.001Z,23.70
2017-12-12T18:23:55.702Z,20.00
2017-12-12T18:26:22.426Z,19.20
2017-12-12T18:28:49.124Z,25.90
2017-12-12T18:31:15.809Z,24.47
2017-12-12T18:33:45.627Z,28.50
2017-12-12T18:36:16.312Z,25.90
2017-12-12T18:38:46.892Z,24.10
2017-12-12T18:41:14.308Z,23.83
2017-12-12T18:43:40.982Z,20.93
2017-12-12T18:46:07.722Z,21.43
2017-12-12T18:48:34.492Z,24.43
2017-12-12T18:51:01.178Z,19.23
2017-12-12T18:53:27.904Z,26.93
2017-12-12T18:55:54.625Z,25.77
2017-12-12T18:58:21.425Z,25.50
2017-12-12T19:00:48.293Z,27.13
2017-12-12T19:03:15.060Z,18.73
2017-12-12T19:05:41.842Z,19.80
2017-12-12T19:08:08.706Z,19.70
2017-12-12T19:10:35.524Z,20.77
2017-12-12T19:13:03.438Z,29.33
2017-12-12T19:15:31.206Z,28.97
2017-12-12T19:17:58.034Z,41.60
2017-12-12T19:20:24.869Z,44.43
2017-12-12T19:22:51.652Z,42.43
2017-12-12T19:25:18.384Z,30.87
2017-12-12T19:27:45.130Z,33.30
2017-12-12T19:30:11.873Z,30.23
2017-12-12T19:32:39.388Z,29.83
2017-12-12T19:35:06.099Z,31.90
2017-12-12T19:37:32.820Z,33.07
2017-12-12T19:39:59.514Z,32.17
2017-12-12T19:42:26.278Z,40.60
2017-12-12T19:44:53.004Z,36.07
2017-12-12T19:47:19.700Z,31.37
2017-12-12T19:49:46.544Z,33.10
2017-12-12T19:52:13.263Z,29.67
2017-12-12T19:54:39.961Z,21.03
2017-12-12T19:57:06.658Z,21.60
2017-12-12T19:59:33.382Z,23.80
2017-12-12T20:02:00.087Z,21.17
2017-12-12T20:04:26.790Z,19.20
2017-12-12T20:06:53.584Z,22.00
2017-12-12T20:09:20.240Z,23.23
2017-12-12T20:11:46.922Z,28.00
2017-12-12T20:14:13.668Z,27.17
2017-12-12T20:16:40.367Z,28.73
2017-12-12T20:19:07.051Z,37.53
2017-12-12T20:21:33.782Z,41.17
2017-12-12T20:24:00.485Z,43.77
2017-12-12T20:26:27.180Z,42.73
2017-12-12T20:28:53.930Z,44.00
2017-12-12T20:31:20.628Z,48.20
2017-12-12T20:33:47.327Z,52.83
2017-12-12T20:36:14.058Z,53.90
2017-12-12T20:38:41.629Z,53.47
2017-12-12T20:41:08.325Z,49.73
2017-12-12T20:43:35.045Z,55.10
2017-12-12T20:46:01.761Z,61.73
2017-12-12T20:48:28.452Z,51.43
2017-12-12T20:50:55.218Z,60.70
2017-12-12T20:53:21.930Z,51.43
2017-12-12T20:55:48.650Z,39.83
2017-12-12T20:58:15.417Z,47.67
2017-12-12T21:00:42.209Z,39.23
2017-12-12T21:03:08.947Z,39.50
2017-12-12T21:05:35.676Z,37.50
2017-12-12T21:08:02.723Z,44.47
2017-12-12T21:10:29.447Z,44.20
2017-12-12T21:12:56.167Z,38.37
2017-12-12T21:15:22.846Z,36.37
2017-12-12T21:17:49.587Z,33.57
2017-12-12T21:20:16.310Z,35.30
2017-12-12T21:22:44.069Z,30.80
2017-12-12T21:25:23.559Z,41.93
2017-12-12T21:27:50.245Z,37.87
2017-12-12T21:30:16.941Z,39.43
2017-12-12T21:32:43.642Z,33.30
2017-12-12T21:35:10.354Z,33.60
2017-12-12T21:37:37.047Z,38.00
2017-12-12T21:40:07.587Z,32.87
2017-12-12T21:42:34.270Z,31.40
2017-12-12T21:45:00.964Z,35.23
2017-12-12T21:47:27.676Z,38.53
2017-12-12T21:50:01.765Z,34.40
2017-12-12T21:52:33.195Z,39.83
2017-12-12T21:54:59.957Z,45.70
2017-12-12T21:57:26.736Z,49.57
2017-12-12T21:59:53.578Z,52.57
2017-12-12T22:02:24.852Z,56.97
2017-12-12T22:04:51.620Z,57.17
2017-12-12T22:07:22.259Z,56.20
2017-12-12T22:09:49.911Z,53.77
2017-12-12T22:12:17.889Z,65.70
2017-12-12T22:14:52.402Z,57.03
2017-12-12T22:17:19.116Z,47.37
2017-12-12T22:19:45.814Z,55.77
2017-12-12T22:22:14.578Z,51.93
2017-12-12T22:24:42.380Z,46.27
2017-12-12T22:27:14.720Z,50.83
2017-12-12T22:29:41.430Z,43.00
2017-12-12T22:32:15.169Z,39.33
2017-12-12T22:34:41.919Z,37.97
2017-12-12T22:37:08.623Z,38.93
2017-12-12T22:39:36.963Z,42.60
2017-12-12T22:44:54.170Z,41.90
2017-12-12T22:47:20.854Z,45.63
2017-12-12T22:49:49.509Z,41.07
2017-12-12T22:52:16.281Z,45.07
2017-12-12T22:54:43.008Z,46.60
2017-12-12T22:57:09.722Z,42.00
2017-12-12T22:59:53.060Z,41.20
2017-12-12T23:02:27.249Z,41.80
2017-12-12T23:05:04.512Z,40.83
2017-12-12T23:07:31.216Z,49.80
2017-12-12T23:10:10.930Z,43.63
2017-12-12T23:15:36.469Z,40.47
2017-12-12T23:18:17.484Z,42.47
2017-12-12T23:20:44.208Z,37.93
2017-12-12T23:26:13.248Z,51.77
2017-12-12T23:28:46.452Z,33.57
2017-12-12T23:31:13.262Z,33.67
2017-12-12T23:36:32.484Z,32.63
2017-12-12T23:38:59.196Z,31.50
2017-12-12T23:41:33.592Z,28.03
2017-12-12T23:44:06.300Z,29.17
2017-12-12T23:46:43.020Z,33.87
2017-12-12T23:49:09.777Z,31.20
2017-12-12T23:51:36.484Z,31.00
2017-12-12T23:54:03.260Z,30.17
2017-12-12T23:56:29.996Z,29.87
2017-12-12T23:58:56.696Z,29.73
